Time;durP1;ratioP1;P1;durP2;ratioP2;P2;SDS_P1;SDS_P2;PMS_P1;PMS_P2;Temp;Humidity;BMP_temperature;BMP_pressure;BME280_temperature;BME280_humidity;BME280_pressure;Samples;Min_cycle;Max_cycle;Signal;HPM_P1;HPM_P2
2022/09/27 00:02:38;;;;;;;2.27;2.07;;;11.40;99.90;;;;;;5067930;28;20453;-81
2022/09/27 00:05:22;;;;;;;2.07;1.70;;;11.50;99.90;;;;;;5067580;28;20394;-81
2022/09/27 00:08:10;;;;;;;2.17;1.93;;;11.60;99.90;;;;;;5067895;28;20429;-81
2022/09/27 00:11:00;;;;;;;2.27;2.00;;;11.70;99.90;;;;;;5067563;28;20439;-81
2022/09/27 00:13:45;;;;;;;2.13;1.90;;;11.80;99.90;;;;;;5067993;28;20472;-81
2022/09/27 00:16:33;;;;;;;2.07;1.87;;;11.60;99.90;;;;;;5067611;28;20386;-81
2022/09/27 00:19:21;;;;;;;2.00;1.80;;;11.70;99.90;;;;;;5067940;28;20385;-81
2022/09/27 00:22:05;;;;;;;4.73;2.03;;;11.70;99.90;;;;;;5067930;28;20453;-80
2022/09/27 00:24:51;;;;;;;1.70;1.60;;;11.50;99.90;;;;;;5068310;28;20511;-80
2022/09/27 00:27:35;;;;;;;2.27;2.07;;;11.50;99.90;;;;;;5068738;28;20385;-80
2022/09/27 00:30:19;;;;;;;1.80;1.50;;;11.60;99.90;;;;;;5068242;28;20377;-80
2022/09/27 00:33:04;;;;;;;2.80;2.37;;;11.60;99.90;;;;;;5068411;28;20398;-80
2022/09/27 00:35:49;;;;;;;4.07;2.17;;;11.50;99.90;;;;;;5068275;28;20415;-80
2022/09/27 00:38:33;;;;;;;2.30;2.10;;;11.50;99.90;;;;;;5068344;28;20450;-80
2022/09/27 00:41:25;;;;;;;2.00;1.80;;;11.40;99.90;;;;;;5068558;28;20985;-80
2022/09/27 00:44:40;;;;;;;2.03;1.93;;;11.40;99.90;;;;;;5067715;28;20940;-81
2022/09/27 00:47:32;;;;;;;1.77;1.67;;;11.30;99.90;;;;;;5067255;28;20394;-80
2022/09/27 00:50:41;;;;;;;4.63;2.50;;;11.40;99.90;;;;;;5068047;28;20394;-80
2022/09/27 00:53:33;;;;;;;2.03;1.90;;;11.40;99.90;;;;;;5068757;28;20386;-79
2022/09/27 00:56:22;;;;;;;2.27;2.07;;;11.30;99.90;;;;;;5068685;28;20433;-80
2022/09/27 00:59:29;;;;;;;3.37;2.00;;;11.40;99.90;;;;;;5067974;28;20446;-80
2022/09/27 01:02:14;;;;;;;2.33;2.10;;;11.30;99.90;;;;;;5067479;28;20476;-80
2022/09/27 01:04:59;;;;;;;2.07;1.97;;;11.40;99.90;;;;;;5066875;28;20385;-80
2022/09/27 01:07:44;;;;;;;3.30;2.27;;;11.30;99.90;;;;;;5068225;28;20738;-80
2022/09/27 01:10:36;;;;;;;2.23;1.97;;;11.40;99.90;;;;;;5067829;28;20455;-80
2022/09/27 01:13:29;;;;;;;2.20;2.00;;;11.40;99.90;;;;;;5067464;28;20423;-81
2022/09/27 01:16:26;;;;;;;2.33;2.13;;;11.30;99.90;;;;;;5067068;28;20386;-80
2022/09/27 01:19:44;;;;;;;2.40;2.20;;;11.30;99.90;;;;;;5080660;28;20798;-81
2022/09/27 01:22:58;;;;;;;2.47;2.00;;;11.30;99.90;;;;;;5065672;28;20386;-80
2022/09/27 01:26:08;;;;;;;2.50;2.30;;;11.60;99.90;;;;;;5066234;28;20420;-80
2022/09/27 01:29:10;;;;;;;3.93;2.33;;;11.80;99.90;;;;;;5067420;28;20444;-80
2022/09/27 01:32:07;;;;;;;3.53;2.70;;;11.90;99.90;;;;;;5066659;28;20460;-80
2022/09/27 01:35:19;;;;;;;2.00;1.90;;;11.90;99.90;;;;;;5066819;28;20394;-80
2022/09/27 01:38:24;;;;;;;2.50;2.30;;;11.60;99.90;;;;;;5066809;28;20997;-80
2022/09/27 01:41:26;;;;;;;2.50;2.30;;;11.50;99.90;;;;;;5066839;28;20394;-80
2022/09/27 01:44:27;;;;;;;1.80;1.70;;;11.50;99.90;;;;;;5068872;28;20483;-78
2022/09/27 01:47:16;;;;;;;2.20;2.00;;;11.50;99.90;;;;;;5070521;28;20409;-80
2022/09/27 01:50:10;;;;;;;2.93;2.63;;;11.60;99.90;;;;;;5067607;28;20504;-81
2022/09/27 01:53:02;;;;;;;2.30;2.00;;;11.60;99.90;;;;;;5067163;28;20390;-80
2022/09/27 01:55:50;;;;;;;1.87;1.73;;;11.60;99.90;;;;;;5066780;28;20398;-81
2022/09/27 01:58:46;;;;;;;2.37;2.13;;;11.50;99.90;;;;;;5066451;28;20386;-79
2022/09/27 02:01:34;;;;;;;2.17;1.90;;;11.40;99.90;;;;;;5065802;28;20465;-80
2022/09/27 02:04:24;;;;;;;4.00;2.40;;;11.50;99.90;;;;;;5066902;28;20453;-80
2022/09/27 02:07:17;;;;;;;2.50;2.30;;;11.50;99.90;;;;;;5064442;28;20743;-81
2022/09/27 02:10:08;;;;;;;2.47;2.00;;;11.50;99.90;;;;;;5066145;28;20382;-80
2022/09/27 02:13:04;;;;;;;4.20;2.07;;;11.40;99.90;;;;;;5064900;28;20414;-80
2022/09/27 02:16:19;;;;;;;3.67;3.03;;;11.40;99.90;;;;;;5064115;28;20429;-80
2022/09/27 02:19:29;;;;;;;1.97;1.73;;;11.40;99.90;;;;;;5065248;28;20413;-80
2022/09/27 02:22:44;;;;;;;2.50;1.90;;;11.30;99.90;;;;;;5065162;28;20390;-82
2022/09/27 02:25:46;;;;;;;2.00;1.90;;;11.40;99.90;;;;;;5066634;28;20382;-82
2022/09/27 02:28:55;;;;;;;1.63;1.53;;;11.40;99.90;;;;;;5066186;28;20378;-81
2022/09/27 02:31:39;;;;;;;2.97;2.00;;;11.30;99.90;;;;;;5064933;28;20364;-81
2022/09/27 02:34:28;;;;;;;1.40;1.30;;;11.30;99.90;;;;;;5064970;28;20390;-80
2022/09/27 02:37:13;;;;;;;1.50;1.40;;;11.30;99.90;;;;;;5065497;28;20365;-81
2022/09/27 02:39:57;;;;;;;3.67;1.53;;;11.20;99.90;;;;;;5065713;28;20441;-81
2022/09/27 02:42:43;;;;;;;2.00;1.80;;;11.40;99.90;;;;;;5065682;28;20373;-81
2022/09/27 02:45:48;;;;;;;1.57;1.47;;;11.40;99.90;;;;;;5065747;28;20424;-81
2022/09/27 02:49:03;;;;;;;2.60;1.60;;;11.40;99.90;;;;;;5065092;28;20390;-81
2022/09/27 02:52:11;;;;;;;1.80;1.70;;;11.30;99.90;;;;;;5053414;28;20389;-81
2022/09/27 02:55:18;;;;;;;1.60;1.50;;;11.10;99.90;;;;;;5065282;28;20409;-81
2022/09/27 02:58:22;;;;;;;1.70;1.53;;;11.10;99.90;;;;;;5065480;28;20436;-81
2022/09/27 03:01:29;;;;;;;3.00;2.13;;;11.20;99.90;;;;;;5065318;28;20480;-81
2022/09/27 03:04:25;;;;;;;3.43;2.77;;;11.10;99.90;;;;;;5066378;28;20460;-81
2022/09/27 03:07:12;;;;;;;2.07;1.97;;;11.20;99.90;;;;;;5065606;28;20393;-82
2022/09/27 03:09:57;;;;;;;3.40;1.80;;;11.20;99.90;;;;;;5066242;28;20428;-82
2022/09/27 03:12:41;;;;;;;6.03;2.20;;;11.10;99.90;;;;;;5079189;28;20394;-81
2022/09/27 03:15:26;;;;;;;2.57;2.37;;;11.10;99.90;;;;;;5066559;28;20382;-81
2022/09/27 03:18:11;;;;;;;1.67;1.50;;;11.10;99.90;;;;;;5066037;28;20386;-81
2022/09/27 03:20:55;;;;;;;2.20;2.00;;;11.20;99.90;;;;;;5065696;28;20378;-81
2022/09/27 03:23:40;;;;;;;2.50;1.70;;;11.10;99.90;;;;;;5065701;28;20476;-81
2022/09/27 03:26:25;;;;;;;2.40;1.90;;;11.10;99.90;;;;;;5070260;28;20386;-82
2022/09/27 03:29:10;;;;;;;2.10;1.90;;;11.20;99.90;;;;;;5070509;28;20417;-82
2022/09/27 03:31:54;;;;;;;2.37;2.10;;;11.10;99.90;;;;;;5071015;28;20378;-80
2022/09/27 03:34:39;;;;;;;2.17;2.07;;;11.20;99.90;;;;;;5070689;28;20390;-81
2022/09/27 03:37:23;;;;;;;1.87;1.77;;;11.20;99.90;;;;;;5069574;28;20425;-81
2022/09/27 03:40:08;;;;;;;6.60;1.80;;;11.30;99.90;;;;;;5069842;28;20389;-81
2022/09/27 03:42:53;;;;;;;2.60;1.83;;;11.30;99.90;;;;;;5070481;28;20441;-81
2022/09/27 03:45:38;;;;;;;2.00;1.80;;;11.10;99.90;;;;;;5068409;28;20413;-80
2022/09/27 03:48:22;;;;;;;4.33;1.57;;;11.20;99.90;;;;;;5071116;28;20468;-81
2022/09/27 03:51:11;;;;;;;4.53;1.73;;;11.20;99.90;;;;;;5064362;28;20417;-81
2022/09/27 03:53:55;;;;;;;2.17;1.77;;;11.30;99.90;;;;;;5063854;28;20847;-82
2022/09/27 03:56:40;;;;;;;2.47;2.27;;;11.30;99.90;;;;;;5068863;28;20408;-81
2022/09/27 03:59:25;;;;;;;3.00;1.70;;;11.20;99.90;;;;;;5069073;28;20400;-81
2022/09/27 04:02:10;;;;;;;2.40;2.13;;;11.30;99.90;;;;;;5069386;28;20453;-82
2022/09/27 04:04:54;;;;;;;1.97;1.80;;;11.20;99.90;;;;;;5069838;28;20572;-81
2022/09/27 04:07:40;;;;;;;2.40;2.13;;;11.30;99.90;;;;;;5069318;28;20421;-81
2022/09/27 04:10:24;;;;;;;2.07;1.93;;;11.30;99.90;;;;;;5069226;28;20412;-81
2022/09/27 04:13:09;;;;;;;1.93;1.83;;;11.30;99.90;;;;;;5069901;28;20398;-81
2022/09/27 04:15:54;;;;;;;4.93;1.80;;;11.10;99.90;;;;;;5068875;28;20382;-82
2022/09/27 04:18:38;;;;;;;2.10;1.33;;;11.10;99.90;;;;;;5051498;28;20459;-81
2022/09/27 04:21:23;;;;;;;2.90;1.40;;;10.80;99.90;;;;;;5068618;28;20386;-81
2022/09/27 04:24:10;;;;;;;1.67;1.37;;;10.70;99.90;;;;;;5068904;28;20896;-82
2022/09/27 04:26:55;;;;;;;6.10;1.60;;;11.00;99.90;;;;;;5068372;28;20929;-81
2022/09/27 04:29:44;;;;;;;1.50;1.40;;;11.20;99.90;;;;;;5068056;28;20386;-81
2022/09/27 04:32:28;;;;;;;1.37;1.27;;;11.30;99.90;;;;;;5068044;28;20386;-81
2022/09/27 04:38:14;;;;;;;1.83;1.73;;;11.30;99.90;;;;;;5067379;28;20862;-81
2022/09/27 04:41:00;;;;;;;1.20;1.10;;;11.30;99.90;;;;;;5061730;28;20496;-81
2022/09/27 04:43:45;;;;;;;2.13;2.03;;;11.30;99.90;;;;;;5067019;28;20496;-81
2022/09/27 04:46:30;;;;;;;7.10;1.97;;;11.30;99.90;;;;;;5068051;28;20425;-81
2022/09/27 04:49:14;;;;;;;1.60;1.50;;;11.30;99.90;;;;;;5068126;28;20382;-81
2022/09/27 04:51:58;;;;;;;1.83;1.57;;;11.30;99.90;;;;;;5067306;28;20468;-81
2022/09/27 04:54:43;;;;;;;1.60;1.50;;;11.30;99.90;;;;;;5067674;28;20478;-82
2022/09/27 04:57:49;;;;;;;1.50;1.27;;;11.00;99.90;;;;;;5067312;28;20438;-81
2022/09/27 05:00:33;;;;;;;4.07;1.50;;;10.90;99.90;;;;;;5006795;28;20972;-82
2022/09/27 05:03:18;;;;;;;3.57;1.33;;;11.10;99.90;;;;;;5006455;28;20463;-81
2022/09/27 05:06:03;;;;;;;1.43;1.33;;;10.80;99.90;;;;;;5025366;28;20411;-81
2022/09/27 05:08:47;;;;;;;2.10;1.40;;;10.70;99.90;;;;;;5025725;28;20404;-80
2022/09/27 05:11:31;;;;;;;2.00;1.50;;;10.80;99.90;;;;;;5025620;28;20395;-82
2022/09/27 05:14:16;;;;;;;1.50;1.40;;;11.00;99.90;;;;;;5024730;28;20415;-81
2022/09/27 05:17:01;;;;;;;1.67;1.40;;;10.90;99.90;;;;;;5010854;28;20435;-80
2022/09/27 05:19:45;;;;;;;2.43;1.60;;;10.90;99.90;;;;;;5027344;28;20515;-81
2022/09/27 05:22:30;;;;;;;3.70;1.50;;;11.10;99.90;;;;;;5026509;28;20403;-82
2022/09/27 05:25:14;;;;;;;1.97;1.80;;;11.30;99.90;;;;;;5025353;28;20443;-82
2022/09/27 05:27:58;;;;;;;2.30;1.77;;;11.10;99.90;;;;;;5023058;28;20415;-81
2022/09/27 05:30:43;;;;;;;1.50;1.40;;;11.30;99.90;;;;;;5021122;28;20495;-82
2022/09/27 05:33:27;;;;;;;3.93;1.80;;;10.90;99.90;;;;;;5010341;28;20411;-81
2022/09/27 05:36:14;;;;;;;1.40;1.30;;;10.90;99.90;;;;;;5023706;28;20451;-81
2022/09/27 05:38:58;;;;;;;1.43;1.33;;;10.70;99.90;;;;;;5008010;28;20451;-82
2022/09/27 05:41:43;;;;;;;1.40;1.30;;;10.80;99.90;;;;;;5020432;28;20442;-81
2022/09/27 05:44:27;;;;;;;3.50;1.90;;;10.90;99.90;;;;;;5038081;28;20462;-81
2022/09/27 05:47:13;;;;;;;6.13;1.80;;;10.90;99.90;;;;;;5067900;28;20945;-81
2022/09/27 05:49:58;;;;;;;3.63;1.57;;;10.80;99.90;;;;;;5058405;28;20476;-81
2022/09/27 05:52:42;;;;;;;2.40;1.60;;;10.80;99.90;;;;;;5056678;28;20433;-81
2022/09/27 05:55:28;;;;;;;5.47;1.53;;;11.10;99.90;;;;;;5062550;28;20424;-82
2022/09/27 05:58:14;;;;;;;2.70;2.50;;;11.00;99.90;;;;;;5058798;28;20441;-82
2022/09/27 06:00:59;;;;;;;2.07;1.50;;;11.00;99.90;;;;;;5056902;28;20380;-82
2022/09/27 06:03:45;;;;;;;2.17;2.00;;;10.80;99.90;;;;;;5055616;28;20453;-81
2022/09/27 06:06:29;;;;;;;4.77;2.00;;;11.00;99.90;;;;;;5061684;28;20493;-80
2022/09/27 06:09:15;;;;;;;1.50;1.40;;;10.90;99.90;;;;;;5058972;28;20438;-80
2022/09/27 06:12:00;;;;;;;2.03;1.60;;;10.80;99.90;;;;;;5071063;28;20571;-82
2022/09/27 06:14:44;;;;;;;1.87;1.77;;;10.80;99.90;;;;;;5060431;28;20437;-82
2022/09/27 06:17:32;;;;;;;2.53;2.13;;;11.10;99.90;;;;;;5047786;28;20486;-80
2022/09/27 06:20:17;;;;;;;1.53;1.43;;;11.20;99.90;;;;;;5054460;28;20526;-81
2022/09/27 06:23:04;;;;;;;3.00;1.50;;;11.00;99.90;;;;;;5050693;28;20544;-81
2022/09/27 06:25:50;;;;;;;2.40;1.40;;;10.80;99.90;;;;;;5050498;28;20784;-80
2022/09/27 06:28:35;;;;;;;3.30;1.50;;;10.70;99.90;;;;;;5047359;28;20491;-80
2022/09/27 06:31:20;;;;;;;2.50;1.10;;;10.90;99.90;;;;;;5054666;28;20580;-80
2022/09/27 06:34:05;;;;;;;1.60;1.50;;;11.00;99.90;;;;;;5050430;28;20474;-80
2022/09/27 06:36:50;;;;;;;1.40;1.30;;;10.90;99.90;;;;;;5054636;28;20393;-81
2022/09/27 06:39:35;;;;;;;1.30;1.20;;;11.10;99.90;;;;;;5048915;28;20392;-80
2022/09/27 06:42:20;;;;;;;1.20;1.10;;;11.10;99.90;;;;;;5053472;28;20425;-81
2022/09/27 06:45:05;;;;;;;2.07;1.33;;;11.00;99.90;;;;;;5048766;28;20514;-81
2022/09/27 06:47:49;;;;;;;1.33;1.23;;;11.10;99.90;;;;;;5049033;28;20424;-81
2022/09/27 06:50:36;;;;;;;1.57;1.43;;;11.20;99.90;;;;;;5048425;28;20400;-80
2022/09/27 06:53:20;;;;;;;1.97;1.23;;;11.30;99.90;;;;;;5048211;28;20465;-80
2022/09/27 06:56:05;;;;;;;1.57;1.47;;;11.30;99.90;;;;;;5048754;28;20457;-81
2022/09/27 07:01:53;;;;;;;1.47;1.37;;;11.40;99.90;;;;;;5048527;28;20492;-81
2022/09/27 07:04:38;;;;;;;1.70;1.10;;;11.50;99.90;;;;;;5046240;28;20461;-80
2022/09/27 07:07:23;;;;;;;1.30;1.20;;;11.50;99.90;;;;;;5050577;28;20422;-80
2022/09/27 07:10:08;;;;;;;1.20;1.10;;;11.60;99.90;;;;;;5055574;28;20526;-81
2022/09/27 07:12:53;;;;;;;2.80;1.47;;;11.60;99.90;;;;;;5049811;28;20604;-81
2022/09/27 07:15:40;;;;;;;1.60;1.50;;;11.50;99.90;;;;;;5055999;28;20506;-81
2022/09/27 07:18:24;;;;;;;1.67;1.10;;;11.40;99.90;;;;;;5053129;28;20422;-82
2022/09/27 07:21:11;;;;;;;1.30;1.20;;;11.60;99.90;;;;;;5054980;28;20206;-80
2022/09/27 07:23:55;;;;;;;1.30;1.20;;;11.60;99.90;;;;;;5041053;28;20481;-80
2022/09/27 07:26:40;;;;;;;3.37;1.30;;;11.60;99.90;;;;;;5053446;28;20433;-81
2022/09/27 07:29:25;;;;;;;1.87;1.50;;;11.60;99.90;;;;;;5052500;28;20425;-81
2022/09/27 07:32:09;;;;;;;1.10;1.00;;;11.50;99.90;;;;;;5054837;28;20416;-80
2022/09/27 07:34:54;;;;;;;7.30;2.60;;;11.50;99.90;;;;;;5049578;28;20430;-80
2022/09/27 07:37:40;;;;;;;1.27;1.17;;;11.50;99.90;;;;;;5050721;28;20440;-80
2022/09/27 07:40:26;;;;;;;3.20;1.47;;;11.30;99.90;;;;;;5052097;28;20430;-78
2022/09/27 07:43:11;;;;;;;1.80;1.70;;;11.40;99.90;;;;;;5049186;28;20475;-80
2022/09/27 07:45:56;;;;;;;1.53;1.43;;;11.40;99.90;;;;;;5050864;28;20444;-79
2022/09/27 07:48:41;;;;;;;6.03;1.50;;;11.30;99.90;;;;;;5050823;28;20839;-80
2022/09/27 07:51:27;;;;;;;1.30;1.20;;;11.30;99.90;;;;;;5051836;28;20505;-80
2022/09/27 07:54:12;;;;;;;1.47;1.30;;;11.20;99.90;;;;;;5054322;28;20432;-80
2022/09/27 07:56:57;;;;;;;1.40;1.30;;;11.10;99.90;;;;;;5056408;28;20799;-81
2022/09/27 07:59:42;;;;;;;2.10;1.20;;;11.10;99.90;;;;;;5054758;28;20492;-81
2022/09/27 08:02:26;;;;;;;1.10;1.00;;;11.30;99.90;;;;;;5052135;28;20707;-81
2022/09/27 08:05:13;;;;;;;1.20;1.10;;;11.20;99.90;;;;;;5049585;28;20580;-81
2022/09/27 08:07:57;;;;;;;1.40;1.30;;;11.20;99.90;;;;;;5050855;28;20425;-81
2022/09/27 08:10:43;;;;;;;1.17;1.07;;;11.20;99.90;;;;;;5051678;28;20407;-82
2022/09/27 08:13:28;;;;;;;1.33;1.23;;;11.20;99.90;;;;;;5058134;28;20525;-81
2022/09/27 08:16:13;;;;;;;1.40;1.27;;;11.30;99.90;;;;;;5057054;28;20441;-82
2022/09/27 08:18:57;;;;;;;1.40;1.30;;;11.20;99.90;;;;;;5053293;28;20428;-81
2022/09/27 08:21:42;;;;;;;1.47;1.23;;;11.10;99.90;;;;;;5042900;28;20445;-81
2022/09/27 08:24:27;;;;;;;2.03;1.90;;;11.10;99.90;;;;;;5049788;28;20480;-81
2022/09/27 08:27:12;;;;;;;10.10;1.50;;;11.20;99.90;;;;;;5052809;28;20455;-79
2022/09/27 08:29:57;;;;;;;1.30;1.20;;;11.20;99.90;;;;;;5053598;28;20512;-80
2022/09/27 08:32:42;;;;;;;2.53;1.20;;;11.30;99.90;;;;;;5052494;28;20436;-80
2022/09/27 08:35:28;;;;;;;1.50;1.10;;;11.10;99.90;;;;;;5049811;28;20462;-81
2022/09/27 08:38:13;;;;;;;5.80;2.00;;;11.40;99.90;;;;;;5045714;28;20464;-81
2022/09/27 08:41:06;;;;;;;1.60;1.20;;;11.50;99.90;;;;;;5052303;28;20433;-82
2022/09/27 08:44:10;;;;;;;1.93;1.37;;;11.40;99.90;;;;;;5052639;28;20778;-82
2022/09/27 08:47:13;;;;;;;1.50;1.40;;;11.80;99.90;;;;;;5032871;28;20413;-81
2022/09/27 08:50:22;;;;;;;1.30;1.20;;;11.70;99.90;;;;;;5052395;28;21013;-80
2022/09/27 08:53:39;;;;;;;1.60;1.50;;;12.10;99.90;;;;;;5036305;28;20441;-80
2022/09/27 08:56:25;;;;;;;1.77;1.50;;;12.40;99.90;;;;;;5048503;28;20518;-79
2022/09/27 08:59:20;;;;;;;1.40;1.30;;;12.30;99.90;;;;;;5049009;28;20517;-80
2022/09/27 09:02:19;;;;;;;1.27;1.17;;;12.40;99.90;;;;;;5008740;28;20600;-81
2022/09/27 09:05:16;;;;;;;1.20;1.10;;;12.40;99.90;;;;;;5047399;28;20497;-79
2022/09/27 09:08:23;;;;;;;1.23;1.13;;;12.40;99.90;;;;;;5050372;28;20545;-81
2022/09/27 09:14:50;;;;;;;1.50;1.20;;;12.00;99.90;;;;;;5055861;28;20490;-81
2022/09/27 09:17:59;;;;;;;1.57;1.47;;;12.10;99.90;;;;;;5048965;28;20448;-81
2022/09/27 09:21:17;;;;;;;2.03;1.27;;;12.30;99.90;;;;;;5049625;28;20448;-79
2022/09/27 09:24:15;;;;;;;3.20;1.57;;;12.40;99.90;;;;;;5052115;28;20437;-81
2022/09/27 09:27:29;;;;;;;1.20;1.10;;;12.60;99.90;;;;;;5063951;28;20490;-81
2022/09/27 09:30:23;;;;;;;1.50;1.40;;;12.30;99.90;;;;;;5050357;28;20841;-83
2022/09/27 09:33:24;;;;;;;2.13;2.00;;;12.40;99.90;;;;;;5052163;28;20433;-82
2022/09/27 09:36:32;;;;;;;2.20;1.27;;;12.60;99.90;;;;;;5051108;28;20480;-81
2022/09/27 09:39:22;;;;;;;1.90;1.43;;;12.90;99.90;;;;;;5051151;28;20430;-82
2022/09/27 09:42:17;;;;;;;1.50;1.40;;;12.80;99.90;;;;;;5051637;28;20493;-81
2022/09/27 09:45:06;;;;;;;1.73;1.20;;;12.70;99.90;;;;;;5053268;28;20473;-82
2022/09/27 09:48:04;;;;;;;1.67;1.30;;;12.70;99.90;;;;;;5051222;28;20430;-82
2022/09/27 09:50:52;;;;;;;1.20;1.10;;;12.70;99.90;;;;;;5048595;28;20425;-81
2022/09/27 09:54:01;;;;;;;1.20;1.10;;;12.60;99.90;;;;;;5055592;28;20537;-81
2022/09/27 09:56:52;;;;;;;1.40;1.30;;;12.40;99.90;;;;;;5056382;28;20460;-81
2022/09/27 09:59:44;;;;;;;1.30;1.20;;;12.50;99.90;;;;;;5058237;28;20439;-80
2022/09/27 10:02:34;;;;;;;1.30;1.20;;;12.50;99.90;;;;;;5054571;28;20253;-79
2022/09/27 10:05:22;;;;;;;1.40;1.20;;;12.60;99.90;;;;;;5042074;28;20903;-79
2022/09/27 10:08:16;;;;;;;1.30;1.20;;;12.60;99.90;;;;;;5052174;28;20369;-78
2022/09/27 10:11:01;;;;;;;1.40;1.30;;;12.40;99.90;;;;;;5051614;28;20581;-81
2022/09/27 10:13:46;;;;;;;1.83;1.70;;;11.90;99.90;;;;;;5048337;28;20494;-81
2022/09/27 10:16:31;;;;;;;1.47;1.37;;;11.90;99.90;;;;;;5058263;28;20465;-80
2022/09/27 10:19:25;;;;;;;1.53;1.43;;;11.90;99.90;;;;;;5056704;28;20424;-80
2022/09/27 10:22:23;;;;;;;1.60;1.50;;;11.80;99.90;;;;;;5057227;28;20514;-78
2022/09/27 10:25:08;;;;;;;2.77;1.47;;;11.90;99.90;;;;;;5046268;28;20572;-78
2022/09/27 10:27:54;;;;;;;1.50;1.40;;;12.00;99.90;;;;;;5047960;28;20537;-78
2022/09/27 10:30:39;;;;;;;1.53;1.43;;;11.90;99.90;;;;;;5064247;28;20494;-79
2022/09/27 10:33:24;;;;;;;1.90;1.80;;;11.90;99.90;;;;;;5048742;28;20429;-80
2022/09/27 10:36:24;;;;;;;2.43;1.47;;;11.80;99.90;;;;;;5048050;28;20757;-79
2022/09/27 10:39:22;;;;;;;1.37;1.27;;;12.00;99.90;;;;;;5046216;28;20437;-80
2022/09/27 10:42:21;;;;;;;3.10;1.93;;;11.90;99.90;;;;;;5049138;28;20454;-79
2022/09/27 10:45:35;;;;;;;1.53;1.43;;;12.10;99.90;;;;;;5052515;28;20457;-79
2022/09/27 10:48:22;;;;;;;1.60;1.50;;;12.30;99.90;;;;;;5045338;28;20425;-81
2022/09/27 10:51:25;;;;;;;2.43;1.70;;;12.60;99.90;;;;;;5047988;28;20422;-79
2022/09/27 10:54:22;;;;;;;1.60;1.50;;;12.70;99.90;;;;;;5045434;28;20499;-79
2022/09/27 10:57:20;;;;;;;1.60;1.50;;;12.80;99.90;;;;;;5051393;28;20532;-80
2022/09/27 11:00:18;;;;;;;1.70;1.60;;;12.40;99.90;;;;;;5046078;28;20453;-78
2022/09/27 11:03:13;;;;;;;1.90;1.80;;;12.40;99.90;;;;;;5049095;28;20511;-80
2022/09/27 11:05:58;;;;;;;1.80;1.70;;;12.40;99.90;;;;;;5012261;28;20489;-81
2022/09/27 11:08:44;;;;;;;2.10;1.90;;;12.50;99.90;;;;;;5032964;28;20455;-79
2022/09/27 11:11:29;;;;;;;1.90;1.80;;;12.70;99.90;;;;;;5015986;28;20542;-80
2022/09/27 11:14:23;;;;;;;1.40;1.30;;;12.90;99.90;;;;;;5025233;28;20480;-78
2022/09/27 11:17:24;;;;;;;1.53;1.43;;;13.00;99.90;;;;;;5018752;28;20554;-80
2022/09/27 11:20:20;;;;;;;2.33;1.87;;;13.10;99.90;;;;;;5017088;28;20438;-81
2022/09/27 11:23:42;;;;;;;2.33;1.70;;;12.90;99.90;;;;;;5015362;28;20420;-80
2022/09/27 11:26:47;;;;;;;1.87;1.67;;;13.10;99.90;;;;;;5016804;28;21169;-80
2022/09/27 11:30:04;;;;;;;2.17;1.97;;;13.20;99.90;;;;;;5015918;28;20438;-80
2022/09/27 11:33:04;;;;;;;1.60;1.50;;;13.00;99.90;;;;;;5007606;28;20474;-80
2022/09/27 11:36:06;;;;;;;2.80;2.53;;;13.00;99.90;;;;;;5004270;28;20454;-80
2022/09/27 11:39:10;;;;;;;3.00;1.90;;;13.00;99.90;;;;;;5047442;28;20519;-80
2022/09/27 11:42:22;;;;;;;4.30;3.33;;;13.00;99.90;;;;;;5046829;28;20449;-79
2022/09/27 11:45:29;;;;;;;2.93;1.97;;;13.20;99.90;;;;;;5049857;28;20479;-80
2022/09/27 11:48:38;;;;;;;2.77;1.80;;;13.30;99.90;;;;;;5055101;28;20429;-80
2022/09/27 11:51:53;;;;;;;2.53;2.23;;;13.40;99.90;;;;;;5059505;28;20441;-78
2022/09/27 11:55:01;;;;;;;2.27;1.60;;;13.10;99.90;;;;;;5054700;28;20470;-78
2022/09/27 11:58:10;;;;;;;1.60;1.50;;;13.50;99.90;;;;;;5048887;28;20588;-81
2022/09/27 12:01:11;;;;;;;1.57;1.40;;;13.60;99.90;;;;;;5050616;28;20471;-80
2022/09/27 12:04:25;;;;;;;1.30;1.20;;;13.80;99.90;;;;;;5053151;28;20451;-80
2022/09/27 12:07:41;;;;;;;3.53;2.73;;;13.90;99.90;;;;;;5036791;28;20441;-80
2022/09/27 12:10:25;;;;;;;2.57;1.90;;;13.30;99.90;;;;;;5053316;28;20479;-80
2022/09/27 12:13:13;;;;;;;3.40;1.97;;;14.00;99.90;;;;;;5051142;28;20437;-81
2022/09/27 12:15:58;;;;;;;4.00;1.40;;;14.10;99.90;;;;;;5053015;28;20428;-78
2022/09/27 12:18:46;;;;;;;1.43;1.30;;;14.40;99.90;;;;;;5060629;28;20499;-79
2022/09/27 12:21:32;;;;;;;1.43;1.33;;;14.40;99.90;;;;;;5048454;28;21115;-80
2022/09/27 12:24:21;;;;;;;1.50;1.40;;;14.40;99.90;;;;;;5055306;28;20512;-80
2022/09/27 12:27:13;;;;;;;1.63;1.53;;;14.40;99.90;;;;;;5052962;28;21049;-80
2022/09/27 12:29:59;;;;;;;2.30;1.20;;;14.60;99.90;;;;;;5033222;28;20425;-81
2022/09/27 12:33:01;;;;;;;1.67;1.50;;;14.50;99.90;;;;;;5047120;28;20537;-80
2022/09/27 12:35:51;;;;;;;2.10;1.57;;;15.00;99.90;;;;;;5053143;28;21016;-82
2022/09/27 12:38:43;;;;;;;3.33;1.77;;;15.90;99.90;;;;;;5054513;28;20784;-80
2022/09/27 12:41:35;;;;;;;1.90;1.47;;;16.80;99.90;;;;;;5050162;28;20810;-81
2022/09/27 12:44:19;;;;;;;2.57;1.30;;;17.10;99.90;;;;;;5052664;28;20501;-80
2022/09/27 12:47:44;;;;;;;6.03;1.90;;;18.00;99.90;;;;;;5053582;28;20480;-82
2022/09/27 12:50:41;;;;;;;1.30;1.20;;;18.90;99.90;;;;;;5049606;28;20602;-82
2022/09/27 12:53:40;;;;;;;7.47;2.33;;;17.70;99.90;;;;;;5053712;28;20815;-81
2022/09/27 12:56:50;;;;;;;2.80;2.10;;;17.10;99.90;;;;;;5053857;28;20480;-81
2022/09/27 12:59:59;;;;;;;3.07;2.87;;;16.30;99.90;;;;;;5047833;28;20450;-80
2022/09/27 13:03:11;;;;;;;4.80;1.50;;;15.90;99.90;;;;;;5043162;28;20754;-80
2022/09/27 13:06:20;;;;;;;4.00;1.37;;;15.60;99.90;;;;;;5042923;28;20509;-79
2022/09/27 13:09:27;;;;;;;1.40;1.20;;;15.00;99.90;;;;;;5048912;28;20433;-80
2022/09/27 13:12:18;;;;;;;3.30;1.43;;;14.70;99.90;;;;;;5046169;28;20511;-79
2022/09/27 13:15:12;;;;;;;1.63;1.50;;;14.60;99.90;;;;;;5049080;28;20428;-79
2022/09/27 13:18:02;;;;;;;3.47;1.30;;;14.20;99.90;;;;;;5046806;28;20432;-82
2022/09/27 13:20:48;;;;;;;1.60;1.27;;;13.80;99.90;;;;;;5048230;28;21164;-81
2022/09/27 13:23:52;;;;;;;2.27;1.10;;;13.40;99.90;;;;;;5045255;28;20452;-82
2022/09/27 13:26:45;;;;;;;1.40;1.27;;;13.40;99.90;;;;;;5052673;28;20492;-81
2022/09/27 13:29:32;;;;;;;1.53;1.43;;;13.30;99.90;;;;;;5050531;28;20425;-80
2022/09/27 13:32:20;;;;;;;4.03;1.40;;;13.40;99.90;;;;;;5048968;28;20465;-81
2022/09/27 13:35:24;;;;;;;1.60;1.50;;;13.30;99.90;;;;;;5049606;28;20422;-81
2022/09/27 13:38:22;;;;;;;5.50;1.97;;;13.20;99.90;;;;;;5050720;28;20447;-82
2022/09/27 13:41:16;;;;;;;3.00;1.23;;;13.10;99.90;;;;;;5049869;28;20433;-81
2022/09/27 13:44:13;;;;;;;2.03;1.20;;;12.80;99.90;;;;;;5048577;28;20547;-80
2022/09/27 13:47:12;;;;;;;1.50;1.40;;;12.50;99.90;;;;;;5033182;28;20449;-80
2022/09/27 13:50:28;;;;;;;1.70;1.60;;;12.20;99.90;;;;;;5045991;28;20443;-82
2022/09/27 13:53:39;;;;;;;5.70;1.50;;;11.80;99.90;;;;;;5051010;28;20862;-81
2022/09/27 13:56:47;;;;;;;1.80;1.70;;;11.60;99.90;;;;;;5048092;28;20577;-80
2022/09/27 13:59:45;;;;;;;1.50;1.33;;;11.70;99.90;;;;;;5054195;28;20436;-81
2022/09/27 14:02:38;;;;;;;1.60;1.10;;;11.30;99.90;;;;;;5051307;28;20468;-81
2022/09/27 14:05:31;;;;;;;1.50;1.40;;;11.40;99.90;;;;;;5050987;28;20437;-82
2022/09/27 14:08:43;;;;;;;4.50;1.30;;;11.40;99.90;;;;;;5040415;28;20545;-80
2022/09/27 14:11:33;;;;;;;1.70;1.60;;;11.60;99.90;;;;;;5050891;28;20426;-80
2022/09/27 14:14:23;;;;;;;2.60;1.50;;;11.80;99.90;;;;;;5051693;28;20437;-81
2022/09/27 14:17:09;;;;;;;2.03;1.50;;;11.90;99.90;;;;;;5041868;28;20783;-79
2022/09/27 14:19:54;;;;;;;1.40;1.30;;;12.00;99.90;;;;;;5051869;28;20502;-78
2022/09/27 14:22:39;;;;;;;1.50;1.40;;;12.20;99.90;;;;;;5024028;28;20498;-80
2022/09/27 14:25:24;;;;;;;3.73;1.70;;;12.20;99.90;;;;;;5018774;28;20436;-78
2022/09/27 14:28:25;;;;;;;2.37;1.80;;;12.20;99.90;;;;;;5028087;28;20442;-80
2022/09/27 14:31:16;;;;;;;4.50;2.20;;;12.40;99.90;;;;;;5015126;28;20650;-79
2022/09/27 14:34:07;;;;;;;1.50;1.40;;;12.50;99.90;;;;;;5025097;28;20516;-80
2022/09/27 14:39:58;;;;;;;2.40;1.87;;;13.10;99.90;;;;;;5036156;28;20513;-81
2022/09/27 14:42:43;;;;;;;2.23;1.40;;;13.70;99.90;;;;;;5040539;28;20458;-81
2022/09/27 14:45:35;;;;;;;1.87;1.63;;;14.30;99.90;;;;;;5035013;28;20437;-80
2022/09/27 14:48:33;;;;;;;2.87;1.80;;;14.70;99.90;;;;;;5009327;28;20514;-80
2022/09/27 14:51:27;;;;;;;1.20;1.10;;;14.50;99.90;;;;;;5032834;28;20430;-81
2022/09/27 14:54:20;;;;;;;1.60;1.50;;;14.40;99.90;;;;;;5039821;28;20442;-79
2022/09/27 14:57:06;;;;;;;3.80;1.73;;;14.40;99.90;;;;;;5051555;28;20476;-78
2022/09/27 14:59:50;;;;;;;1.83;1.73;;;14.60;99.90;;;;;;5053056;28;20441;-79
2022/09/27 15:02:37;;;;;;;4.30;1.73;;;14.40;99.90;;;;;;5038756;28;20836;-79
2022/09/27 15:05:25;;;;;;;1.60;1.50;;;14.40;99.90;;;;;;5061436;28;20448;-78
2022/09/27 15:08:14;;;;;;;1.70;1.60;;;14.50;99.90;;;;;;5017035;28;20875;-80
2022/09/27 15:11:00;;;;;;;1.43;1.33;;;14.50;99.90;;;;;;5021570;28;20514;-81